Time;durP1;ratioP1;P1;durP2;ratioP2;P2;SDS_P1;SDS_P2;PMS_P1;PMS_P2;Temp;Humidity;BMP_temperature;BMP_pressure;BME280_temperature;BME280_humidity;BME280_pressure;Samples;Min_cycle;Max_cycle;Signal;HPM_P1;HPM_P2
2023/10/11 00:00:52;;;;;;;6.60;4.22;;;;;;;11.46;100.00;98580.44;6108065;19;20497;-74
2023/10/11 00:02:52;;;;;;;9.38;4.60;;;;;;;11.48;100.00;98578.06;6105840;19;20344;-73
2023/10/11 00:04:52;;;;;;;7.65;4.72;;;;;;;11.48;100.00;98577.28;6108111;19;20002;-74
2023/10/11 00:06:56;;;;;;;9.32;4.43;;;;;;;11.50;100.00;98577.69;6106614;19;20014;-74
2023/10/11 00:08:57;;;;;;;8.15;4.47;;;;;;;11.49;100.00;98576.91;6107964;19;20403;-73
2023/10/11 00:10:59;;;;;;;10.95;4.43;;;;;;;11.47;100.00;98572.94;6107681;19;20007;-74
2023/10/11 00:13:00;;;;;;;11.05;5.00;;;;;;;11.43;100.00;98574.88;6105891;19;20424;-74
2023/10/11 00:15:00;;;;;;;8.90;4.30;;;;;;;11.41;100.00;98572.47;6107919;19;20007;-73
2023/10/11 00:17:00;;;;;;;8.90;4.60;;;;;;;11.40;100.00;98576.41;6107796;19;20007;-74
2023/10/11 00:19:01;;;;;;;8.18;4.10;;;;;;;11.39;100.00;98569.28;6107473;19;20039;-73
2023/10/11 00:21:11;;;;;;;15.88;4.70;;;;;;;11.41;100.00;98577.22;6107406;19;20010;-73
2023/10/11 00:23:11;;;;;;;7.53;4.57;;;;;;;11.41;100.00;98563.38;6106437;19;20282;-73
2023/10/11 00:25:23;;;;;;;7.90;4.35;;;;;;;11.45;100.00;98569.75;6107321;19;20400;-73
2023/10/11 00:27:28;;;;;;;11.77;4.95;;;;;;;11.49;100.00;98571.34;6107798;19;20056;-73
2023/10/11 00:29:29;;;;;;;12.55;5.10;;;;;;;11.50;100.00;98566.59;6107353;19;20003;-73
2023/10/11 00:31:31;;;;;;;9.45;4.57;;;;;;;11.48;100.00;98563.44;6105711;19;20042;-74
2023/10/11 00:33:33;;;;;;;7.75;4.00;;;;;;;11.46;100.00;98558.28;6106305;19;20017;-74
2023/10/11 00:35:49;;;;;;;9.00;5.00;;;;;;;11.42;100.00;98560.22;6107283;19;20455;-74
2023/10/11 00:37:54;;;;;;;11.52;4.65;;;;;;;11.44;100.00;98552.34;6112778;19;20463;-74
2023/10/11 00:39:54;;;;;;;7.25;4.63;;;;;;;11.42;100.00;98551.09;6111802;19;20018;-73
2023/10/11 00:41:56;;;;;;;6.90;4.25;;;;;;;11.39;100.00;98551.88;6111595;19;20006;-73
2023/10/11 00:43:57;;;;;;;11.60;5.35;;;;;;;11.35;100.00;98553.81;6111886;19;20023;-74
2023/10/11 00:45:59;;;;;;;11.30;5.57;;;;;;;11.32;100.00;98546.25;6112854;19;21034;-74
2023/10/11 00:48:01;;;;;;;9.90;4.93;;;;;;;11.32;100.00;98546.25;6110890;19;20011;-73
2023/10/11 00:50:03;;;;;;;7.40;4.57;;;;;;;11.32;100.00;98546.25;6106132;19;20007;-73
2023/10/11 00:52:06;;;;;;;9.73;5.00;;;;;;;11.31;100.00;98541.91;6103639;19;20498;-73
2023/10/11 00:54:12;;;;;;;9.13;4.80;;;;;;;11.23;100.00;98535.50;6104651;19;20035;-74
2023/10/11 00:56:14;;;;;;;8.02;5.15;;;;;;;11.22;100.00;98531.13;6105100;19;20017;-73
2023/10/11 00:58:15;;;;;;;7.32;4.72;;;;;;;11.16;100.00;98536.22;6104559;19;19998;-73
2023/10/11 01:00:20;;;;;;;9.13;4.47;;;;;;;11.21;100.00;98540.63;6104829;19;20007;-74
2023/10/11 01:02:21;;;;;;;9.32;4.90;;;;;;;11.17;100.00;98542.56;6102261;19;20011;-73
2023/10/11 01:04:22;;;;;;;7.13;4.63;;;;;;;11.12;100.00;98531.84;6104482;19;20077;-73
2023/10/11 01:06:25;;;;;;;7.47;4.40;;;;;;;11.12;100.00;98534.59;6105073;19;20039;-74
2023/10/11 01:08:27;;;;;;;8.38;4.50;;;;;;;11.08;100.00;98531.00;6104432;19;20013;-73
2023/10/11 01:10:29;;;;;;;8.25;4.97;;;;;;;11.07;100.00;98532.16;6104520;19;20027;-74
2023/10/11 01:12:30;;;;;;;8.93;4.95;;;;;;;11.00;100.00;98526.56;6101692;19;20463;-74
2023/10/11 01:14:37;;;;;;;9.60;4.82;;;;;;;10.99;100.00;98525.75;6102078;19;20031;-74
2023/10/11 01:16:37;;;;;;;11.40;4.68;;;;;;;10.92;100.00;98515.44;6104981;19;20007;-74
2023/10/11 01:18:39;;;;;;;14.10;4.90;;;;;;;10.95;100.00;98516.63;6104516;19;20021;-73
2023/10/11 01:20:40;;;;;;;9.73;4.72;;;;;;;10.97;100.00;98515.06;6104088;19;20358;-74
2023/10/11 01:22:41;;;;;;;8.30;4.68;;;;;;;11.02;100.00;98525.03;6102571;19;20090;-73
2023/10/11 01:24:42;;;;;;;9.88;4.63;;;;;;;10.99;100.00;98509.16;6104798;19;20673;-73
2023/10/11 01:26:42;;;;;;;7.38;4.80;;;;;;;11.01;100.00;98512.34;6104325;19;20542;-74
2023/10/11 01:28:44;;;;;;;7.72;4.35;;;;;;;11.01;100.00;98511.56;6104376;19;20011;-73
2023/10/11 01:30:47;;;;;;;8.55;4.72;;;;;;;11.01;100.00;98509.59;6103889;19;20738;-73
2023/10/11 01:32:48;;;;;;;9.02;4.30;;;;;;;11.04;100.00;98511.59;6102519;19;20003;-73
2023/10/11 01:34:49;;;;;;;8.60;4.43;;;;;;;11.03;100.00;98512.75;6102581;19;20011;-74
2023/10/11 01:36:51;;;;;;;10.35;4.38;;;;;;;10.96;100.00;98507.16;6104746;19;20344;-73
2023/10/11 01:38:52;;;;;;;8.27;4.30;;;;;;;10.97;100.00;98503.19;6104120;19;20002;-73
2023/10/11 01:40:54;;;;;;;9.43;4.18;;;;;;;10.94;100.00;98502.00;6104296;19;20013;-73
2023/10/11 01:42:54;;;;;;;10.55;4.88;;;;;;;10.93;100.00;98505.94;6103899;19;20032;-74
2023/10/11 01:44:55;;;;;;;9.13;4.38;;;;;;;10.97;100.00;98508.75;6103848;19;20338;-73
2023/10/11 01:46:55;;;;;;;7.75;4.45;;;;;;;10.97;100.00;98497.66;6105505;19;20439;-73
2023/10/11 01:49:01;;;;;;;10.75;4.47;;;;;;;11.00;100.00;98504.41;6102072;19;20015;-73
2023/10/11 01:51:04;;;;;;;12.30;4.75;;;;;;;11.04;100.00;98503.28;6111252;19;20014;-73
2023/10/11 01:53:08;;;;;;;10.93;4.60;;;;;;;11.04;100.00;98494.97;6110984;19;20042;-74
2023/10/11 01:55:13;;;;;;;6.75;4.55;;;;;;;11.08;100.00;98497.75;6110390;19;20363;-73
2023/10/11 01:57:13;;;;;;;7.85;4.45;;;;;;;11.10;100.00;98498.19;6111247;19;20018;-74
2023/10/11 01:59:15;;;;;;;10.10;4.80;;;;;;;11.11;100.00;98500.59;6110433;19;20006;-73
2023/10/11 02:01:28;;;;;;;10.10;4.35;;;;;;;11.12;100.00;98496.63;6110383;19;20459;-73
2023/10/11 02:03:28;;;;;;;13.35;4.47;;;;;;;11.17;100.00;98501.00;6111962;19;19999;-74
2023/10/11 02:05:31;;;;;;;9.40;4.20;;;;;;;11.18;100.00;98500.66;6110242;19;20053;-73
2023/10/11 02:07:31;;;;;;;8.80;5.80;;;;;;;11.17;100.00;98495.47;6110478;19;20018;-73
2023/10/11 02:09:33;;;;;;;7.57;4.32;;;;;;;11.20;100.00;98492.75;6110818;19;20006;-73
2023/10/11 02:11:33;;;;;;;8.30;4.68;;;;;;;11.21;100.00;98504.63;6110235;19;20601;-74
2023/10/11 02:13:34;;;;;;;7.28;5.07;;;;;;;11.21;100.00;98505.41;6110172;19;20024;-73
2023/10/11 02:15:34;;;;;;;10.98;5.00;;;;;;;11.25;100.00;98500.72;6107605;19;20002;-73
2023/10/11 02:17:39;;;;;;;8.38;4.47;;;;;;;11.24;100.00;98498.31;6111140;19;20333;-74
2023/10/11 02:19:40;;;;;;;10.00;4.13;;;;;;;11.24;100.00;98493.56;6111108;19;20011;-73
2023/10/11 02:21:43;;;;;;;7.40;4.40;;;;;;;11.25;100.00;98497.94;6108706;19;20014;-74
2023/10/11 02:23:44;;;;;;;9.75;3.92;;;;;;;11.25;100.00;98495.19;6110747;19;20010;-73
2023/10/11 02:25:46;;;;;;;7.80;4.38;;;;;;;11.25;100.00;98492.41;6109132;19;20504;-73
2023/10/11 02:27:49;;;;;;;9.45;4.45;;;;;;;11.23;100.00;98486.44;6111088;19;20395;-74
2023/10/11 02:29:50;;;;;;;10.30;5.00;;;;;;;11.21;100.00;98488.81;6109512;19;20024;-74
2023/10/11 02:31:55;;;;;;;7.32;4.50;;;;;;;11.18;100.00;98486.81;6108987;19;20010;-73
2023/10/11 02:34:04;;;;;;;8.57;4.43;;;;;;;11.15;100.00;98486.75;6110655;19;20042;-74
2023/10/11 02:36:08;;;;;;;7.35;4.25;;;;;;;11.17;100.00;98476.91;6108825;19;20007;-74
2023/10/11 02:38:09;;;;;;;11.00;5.93;;;;;;;11.17;100.00;98485.22;6110399;19;20347;-73
2023/10/11 02:40:10;;;;;;;8.68;4.55;;;;;;;11.20;100.00;98481.69;6109424;19;20007;-73
2023/10/11 02:42:11;;;;;;;7.88;4.60;;;;;;;11.35;100.00;98479.03;6109790;19;20018;-73
2023/10/11 02:44:12;;;;;;;7.60;4.28;;;;;;;11.55;100.00;98474.84;6109276;19;20039;-73
2023/10/11 02:46:12;;;;;;;7.18;4.05;;;;;;;12.00;100.00;98481.91;6110311;19;20340;-73
2023/10/11 02:48:12;;;;;;;9.30;3.88;;;;;;;12.50;100.00;98481.34;6109235;19;20490;-73
2023/10/11 02:50:13;;;;;;;7.32;3.47;;;;;;;12.79;100.00;98479.44;6110304;19;20019;-73
2023/10/11 02:52:13;;;;;;;9.32;4.30;;;;;;;13.09;100.00;98479.91;6107996;19;20006;-74
2023/10/11 02:54:14;;;;;;;7.85;3.53;;;;;;;13.35;100.00;98478.00;6109589;19;19999;-73
2023/10/11 02:56:15;;;;;;;7.63;4.07;;;;;;;13.55;100.00;98481.94;6108512;19;20066;-73
2023/10/11 02:58:21;;;;;;;7.70;3.20;;;;;;;13.77;100.00;98471.63;6109291;19;20002;-73
2023/10/11 03:00:21;;;;;;;9.77;4.25;;;;;;;13.90;100.00;98472.78;6109104;19;20138;-73
2023/10/11 03:02:22;;;;;;;7.50;3.58;;;;;;;14.01;100.00;98468.00;6108442;19;20447;-73
2023/10/11 03:04:27;;;;;;;5.65;3.45;;;;;;;14.00;100.00;98465.63;6109309;19;20454;-74
2023/10/11 03:06:28;;;;;;;8.77;3.50;;;;;;;14.11;100.00;98471.94;6110888;19;20011;-73
2023/10/11 03:08:28;;;;;;;8.00;3.75;;;;;;;14.20;100.00;98469.53;6108843;19;21148;-74
2023/10/11 03:10:28;;;;;;;7.43;3.20;;;;;;;14.17;100.00;98470.34;6108712;19;20011;-73
2023/10/11 03:12:33;;;;;;;10.52;3.90;;;;;;;14.25;100.00;98463.56;6107608;19;20474;-73
2023/10/11 03:14:41;;;;;;;7.10;3.60;;;;;;;14.29;100.00;98463.53;6106441;19;20003;-73
2023/10/11 03:16:42;;;;;;;8.32;3.95;;;;;;;14.29;100.00;98469.88;6109500;19;20015;-73
2023/10/11 03:18:46;;;;;;;6.18;3.28;;;;;;;14.31;100.00;98456.38;6107962;19;20011;-73
2023/10/11 03:20:46;;;;;;;9.38;4.05;;;;;;;14.43;100.00;98454.34;6108544;19;20014;-74
2023/10/11 03:22:51;;;;;;;8.88;3.90;;;;;;;14.48;100.00;98457.53;6108591;19;20021;-73
2023/10/11 03:24:59;;;;;;;8.15;3.78;;;;;;;14.49;100.00;98459.13;6109380;19;20573;-74
2023/10/11 03:27:00;;;;;;;6.20;3.60;;;;;;;14.42;100.00;98450.75;6109005;19;20027;-73
2023/10/11 03:29:04;;;;;;;6.35;3.47;;;;;;;14.40;100.00;98458.72;6109946;19;20110;-73
2023/10/11 03:31:04;;;;;;;5.97;3.50;;;;;;;14.29;100.00;98452.41;6107889;19;20010;-74
2023/10/11 03:33:07;;;;;;;8.70;3.95;;;;;;;14.21;100.00;98451.63;6107993;19;20010;-74
2023/10/11 03:35:09;;;;;;;9.73;3.78;;;;;;;14.17;100.00;98450.06;6108057;19;20010;-74
2023/10/11 03:37:17;;;;;;;7.13;4.10;;;;;;;14.15;100.00;98446.88;6108890;19;20006;-73
2023/10/11 03:41:28;;;;;;;6.75;3.33;;;;;;;14.03;100.00;98442.53;6106785;19;20011;-73
2023/10/11 03:43:32;;;;;;;8.02;4.47;;;;;;;13.99;100.00;98439.00;6109214;19;20258;-73
2023/10/11 03:45:35;;;;;;;7.53;3.55;;;;;;;13.97;100.00;98441.38;6108343;19;20011;-73
2023/10/11 03:47:37;;;;;;;6.40;3.47;;;;;;;13.92;100.00;98441.78;6108655;19;20342;-74
2023/10/11 03:51:43;;;;;;;7.35;3.72;;;;;;;14.04;100.00;98436.56;6107470;19;19915;-73
2023/10/11 03:53:46;;;;;;;8.07;4.13;;;;;;;14.06;100.00;98439.75;6109078;19;20031;-74
2023/10/11 03:55:47;;;;;;;5.88;3.42;;;;;;;14.06;100.00;98445.31;6106521;19;20027;-73
2023/10/11 03:57:50;;;;;;;6.65;3.85;;;;;;;14.01;100.00;98433.81;6106214;19;20507;-73
2023/10/11 03:59:51;;;;;;;9.95;3.50;;;;;;;13.96;100.00;98435.00;6107942;19;20020;-73
2023/10/11 04:02:00;;;;;;;6.60;3.83;;;;;;;13.98;100.00;98432.66;6105160;19;20812;-73
2023/10/11 04:04:01;;;;;;;12.00;4.30;;;;;;;14.00;100.00;98435.81;6107288;19;20046;-73
2023/10/11 04:06:01;;;;;;;6.35;3.58;;;;;;;14.02;100.00;98436.19;6106792;19;20006;-73
2023/10/11 04:08:06;;;;;;;8.57;4.13;;;;;;;14.00;100.00;98433.03;6108317;19;20356;-73
2023/10/11 04:10:19;;;;;;;6.05;3.42;;;;;;;14.09;100.00;98431.81;6100078;19;20027;-74
2023/10/11 04:12:24;;;;;;;9.20;4.20;;;;;;;14.20;100.00;98440.91;6117136;19;20014;-73
2023/10/11 04:14:32;;;;;;;7.00;3.47;;;;;;;14.23;100.00;98440.91;6114389;19;20014;-73
2023/10/11 04:16:32;;;;;;;7.38;3.92;;;;;;;14.27;100.00;98427.75;6118983;19;20042;-74
2023/10/11 04:18:36;;;;;;;8.80;3.85;;;;;;;14.26;100.00;98436.50;6118472;19;20002;-74
2023/10/11 04:20:40;;;;;;;5.15;3.40;;;;;;;14.36;100.00;98437.66;6118462;19;20013;-73
2023/10/11 04:22:49;;;;;;;6.28;3.70;;;;;;;14.34;100.00;98436.09;6117315;19;20338;-73
2023/10/11 04:24:53;;;;;;;7.20;3.90;;;;;;;14.37;100.00;98426.13;6117848;19;20010;-73
2023/10/11 04:26:54;;;;;;;10.27;3.63;;;;;;;14.37;100.00;98439.25;6118775;19;20453;-73
2023/10/11 04:28:54;;;;;;;4.55;3.47;;;;;;;14.27;100.00;98435.31;6118690;19;20011;-73
2023/10/11 04:31:28;;;;;;;6.30;3.58;;;;;;;14.21;100.00;98442.47;6117887;19;20603;-73
2023/10/11 04:33:20;;;;;;;7.32;4.07;;;;;;;14.12;100.00;98439.34;6117016;19;20014;-73
2023/10/11 04:35:36;;;;;;;9.27;3.70;;;;;;;14.05;100.00;98426.25;6118334;19;20447;-74
2023/10/11 04:37:44;;;;;;;7.68;3.80;;;;;;;14.00;100.00;98426.66;6117180;19;19999;-73
2023/10/11 04:39:51;;;;;;;7.82;3.75;;;;;;;13.87;100.00;98429.06;6117189;19;20546;-74
2023/10/11 04:41:52;;;;;;;8.80;3.97;;;;;;;13.78;100.00;98431.47;6116204;19;20085;-73
2023/10/11 04:44:04;;;;;;;6.38;3.38;;;;;;;13.73;100.00;98426.31;6116839;19;20472;-74
2023/10/11 04:46:12;;;;;;;7.25;3.55;;;;;;;13.69;100.00;98428.31;6117508;19;20007;-73
2023/10/11 04:48:15;;;;;;;7.32;3.70;;;;;;;13.65;100.00;98428.34;6117859;19;20006;-74
2023/10/11 04:50:15;;;;;;;6.95;3.00;;;;;;;13.58;100.00;98425.56;6106756;19;20066;-74
2023/10/11 04:52:36;;;;;;;7.85;4.03;;;;;;;13.53;100.00;98422.41;6116045;19;20006;-74
2023/10/11 04:54:42;;;;;;;6.93;4.25;;;;;;;13.44;100.00;98429.16;6116158;19;20401;-73
2023/10/11 04:58:49;;;;;;;5.57;3.95;;;;;;;13.37;100.00;98428.34;6115218;19;20002;-73
2023/10/11 05:00:54;;;;;;;7.35;3.90;;;;;;;13.33;100.00;98436.72;6115969;19;20078;-74
2023/10/11 05:02:58;;;;;;;10.45;3.80;;;;;;;13.29;100.00;98424.00;6114119;19;20006;-73
2023/10/11 05:04:59;;;;;;;6.85;3.20;;;;;;;13.24;100.00;98435.50;6115218;19;19999;-73
2023/10/11 05:07:09;;;;;;;5.90;3.50;;;;;;;13.16;100.00;98431.91;6117188;19;20017;-73
2023/10/11 05:09:29;;;;;;;8.85;3.80;;;;;;;13.08;100.00;98416.44;6117322;19;20474;-73
2023/10/11 05:11:36;;;;;;;5.03;3.40;;;;;;;13.06;100.00;98422.38;6113676;19;20366;-73
2023/10/11 05:13:39;;;;;;;6.90;3.38;;;;;;;13.00;100.00;98437.06;6117725;19;20091;-73
2023/10/11 05:15:47;;;;;;;8.13;3.80;;;;;;;12.90;100.00;98428.28;6114716;19;20007;-73
2023/10/11 05:17:59;;;;;;;10.10;3.47;;;;;;;12.83;100.00;98419.97;6117268;19;20018;-73
2023/10/11 05:22:08;;;;;;;9.93;3.80;;;;;;;12.65;100.00;98433.00;6112049;19;20006;-74
2023/10/11 05:24:27;;;;;;;9.63;4.32;;;;;;;12.53;100.00;98422.28;6109412;19;20070;-73
2023/10/11 05:26:38;;;;;;;9.18;3.83;;;;;;;12.45;100.00;98418.69;6111748;19;20003;-74
2023/10/11 05:28:51;;;;;;;8.25;3.80;;;;;;;12.40;100.00;98429.38;6111240;19;20379;-73
2023/10/11 05:33:41;;;;;;;8.73;4.53;;;;;;;12.42;100.00;98432.56;6107967;19;20006;-73
2023/10/11 05:51:42;;;;;;;6.68;3.45;;;;;;;12.53;100.00;98436.16;6101816;19;20020;-73
2023/10/11 05:53:42;;;;;;;9.02;3.78;;;;;;;12.52;100.00;98437.34;6102753;19;20013;-73
2023/10/11 05:55:42;;;;;;;8.48;4.10;;;;;;;12.60;100.00;98433.41;6102700;19;20463;-73
2023/10/11 05:57:44;;;;;;;9.05;4.10;;;;;;;12.72;100.00;98446.13;6103512;19;20003;-73
2023/10/11 05:59:47;;;;;;;7.60;3.92;;;;;;;12.77;100.00;98442.97;6102682;19;20014;-74
2023/10/11 06:01:48;;;;;;;7.43;3.67;;;;;;;12.84;100.00;98446.56;6101765;19;20342;-73
2023/10/11 06:03:51;;;;;;;8.32;4.10;;;;;;;12.89;100.00;98440.59;6103508;19;20312;-73
2023/10/11 06:05:51;;;;;;;7.85;3.72;;;;;;;12.99;100.00;98436.28;6102824;19;20024;-73
2023/10/11 06:08:00;;;;;;;8.38;3.78;;;;;;;13.03;100.00;98434.28;6101283;19;20007;-73
2023/10/11 06:10:06;;;;;;;7.45;3.95;;;;;;;13.03;100.00;98439.03;6101805;19;20027;-73
2023/10/11 06:12:22;;;;;;;9.80;4.15;;;;;;;13.08;100.00;98439.44;6102666;19;20110;-74
2023/10/11 06:14:23;;;;;;;7.85;3.70;;;;;;;13.10;100.00;98442.63;6100973;19;20016;-73
2023/10/11 06:16:24;;;;;;;9.52;4.13;;;;;;;13.09;100.00;98446.59;6103242;19;20003;-73
2023/10/11 06:18:39;;;;;;;7.68;4.38;;;;;;;13.06;100.00;98452.91;6102381;19;20107;-73
2023/10/11 06:20:53;;;;;;;7.07;3.67;;;;;;;13.02;100.00;98448.56;6102588;19;20325;-73
2023/10/11 06:22:54;;;;;;;9.00;3.72;;;;;;;12.96;100.00;98455.69;6100832;19;20016;-73
2023/10/11 06:24:58;;;;;;;8.88;3.97;;;;;;;12.92;100.00;98464.81;6102979;19;20574;-73
2023/10/11 06:29:23;;;;;;;9.45;4.05;;;;;;;13.04;100.00;98469.19;6102931;19;20024;-74
2023/10/11 06:31:24;;;;;;;9.15;4.30;;;;;;;13.22;100.00;98458.13;6100983;19;20335;-74
2023/10/11 06:33:25;;;;;;;7.60;3.88;;;;;;;13.29;100.00;98471.22;6102665;19;20600;-73
2023/10/11 06:35:26;;;;;;;9.13;4.30;;;;;;;13.33;100.00;98472.84;6102512;19;20013;-73
2023/10/11 06:37:26;;;;;;;7.75;3.88;;;;;;;13.31;100.00;98471.63;6102385;19;20058;-73
2023/10/11 06:39:34;;;;;;;7.43;4.20;;;;;;;13.29;100.00;98474.81;6102870;19;20006;-73
2023/10/11 06:41:37;;;;;;;7.10;3.63;;;;;;;13.25;100.00;98462.91;6100918;19;20019;-74
2023/10/11 06:43:37;;;;;;;5.60;3.33;;;;;;;13.24;100.00;98468.84;6102303;19;20494;-74
2023/10/11 06:45:40;;;;;;;10.00;3.92;;;;;;;13.21;100.00;98476.78;6102910;19;20006;-73
2023/10/11 06:47:40;;;;;;;6.28;2.92;;;;;;;13.24;100.00;98466.88;6102026;19;20300;-74
2023/10/11 06:49:44;;;;;;;7.10;4.15;;;;;;;13.28;100.00;98466.88;6103047;19;20440;-73
2023/10/11 06:51:44;;;;;;;10.55;3.97;;;;;;;13.28;100.00;98462.09;6108135;19;20018;-73
2023/10/11 06:53:46;;;;;;;9.80;4.90;;;;;;;13.37;100.00;98472.81;6109106;19;20006;-74
2023/10/11 06:55:50;;;;;;;5.95;3.75;;;;;;;13.38;100.00;98461.31;6108698;19;20015;-73
2023/10/11 06:57:54;;;;;;;8.38;3.95;;;;;;;13.42;100.00;98472.44;6107600;19;20463;-73
2023/10/11 06:59:57;;;;;;;7.75;4.18;;;;;;;13.46;100.00;98467.66;6108765;19;20007;-73
2023/10/11 07:01:59;;;;;;;8.52;3.92;;;;;;;13.47;100.00;98472.03;6107755;19;20018;-73
2023/10/11 07:04:00;;;;;;;10.00;4.10;;;;;;;13.54;100.00;98474.00;6109140;19;20015;-73
2023/10/11 07:06:10;;;;;;;8.93;3.85;;;;;;;13.58;100.00;98478.38;6108600;19;20109;-73
2023/10/11 07:08:10;;;;;;;10.82;4.53;;;;;;;13.65;100.00;98470.03;6109123;19;20021;-73
2023/10/11 07:10:29;;;;;;;13.90;5.03;;;;;;;13.74;100.00;98473.22;6108548;19;20014;-74
2023/10/11 07:12:39;;;;;;;7.07;3.55;;;;;;;13.80;100.00;98472.78;6107932;19;20536;-74
2023/10/11 07:14:41;;;;;;;8.77;4.45;;;;;;;13.85;100.00;98475.19;6109239;19;20010;-73
2023/10/11 07:16:44;;;;;;;9.93;4.18;;;;;;;13.88;100.00;98475.16;6108825;19;20489;-73
2023/10/11 07:18:48;;;;;;;9.85;4.75;;;;;;;13.95;100.00;98464.03;6109027;19;20014;-73
2023/10/11 07:20:48;;;;;;;8.68;4.53;;;;;;;14.00;100.00;98469.19;6108220;19;20018;-73
2023/10/11 07:22:49;;;;;;;9.05;3.67;;;;;;;14.02;100.00;98472.34;6106834;19;20010;-73
2023/10/11 07:24:55;;;;;;;8.18;4.00;;;;;;;14.06;100.00;98464.00;6108715;19;20010;-74
2023/10/11 07:27:08;;;;;;;9.68;4.30;;;;;;;14.15;100.00;98464.38;6108630;19;20481;-74
2023/10/11 07:29:08;;;;;;;8.73;4.43;;;;;;;14.21;100.00;98451.63;6108078;19;20014;-73
2023/10/11 07:31:16;;;;;;;11.02;3.95;;;;;;;14.31;100.00;98459.16;6108206;19;20015;-74
2023/10/11 07:33:18;;;;;;;9.82;4.10;;;;;;;14.41;100.00;98451.16;6107503;19;20434;-73
2023/10/11 07:35:27;;;;;;;7.00;3.55;;;;;;;14.49;100.00;98449.97;6108649;19;20491;-74
2023/10/11 07:37:27;;;;;;;15.82;4.07;;;;;;;14.59;100.00;98452.69;6109083;19;20010;-74
2023/10/11 07:39:29;;;;;;;10.95;4.00;;;;;;;14.72;100.00;98443.88;6105883;19;20019;-73
2023/10/11 07:41:29;;;;;;;9.82;3.85;;;;;;;14.81;100.00;98450.59;6106929;19;20011;-74
2023/10/11 07:43:32;;;;;;;8.45;4.28;;;;;;;14.94;100.00;98447.31;6107758;19;21087;-73
2023/10/11 07:45:34;;;;;;;12.18;4.07;;;;;;;15.03;100.00;98450.44;6106965;19;19998;-73
2023/10/11 07:47:34;;;;;;;8.27;3.97;;;;;;;15.15;100.00;98453.56;6107241;19;20017;-74
2023/10/11 07:49:41;;;;;;;8.05;4.18;;;;;;;15.26;100.00;98441.53;6107093;19;20342;-73
2023/10/11 07:51:42;;;;;;;8.48;3.97;;;;;;;15.51;100.00;98433.75;6107446;19;20070;-74
2023/10/11 07:53:43;;;;;;;6.70;3.33;;;;;;;15.63;100.00;98444.41;6108315;19;20022;-73
2023/10/11 07:55:45;;;;;;;9.25;3.88;;;;;;;15.88;100.00;98432.22;6108407;19;20011;-74
2023/10/11 07:57:46;;;;;;;9.38;3.45;;;;;;;16.07;100.00;98436.41;6107659;19;20351;-73
2023/10/11 07:59:51;;;;;;;9.93;3.78;;;;;;;16.24;100.00;98449.38;6106799;19;20351;-73
2023/10/11 08:01:53;;;;;;;11.40;3.80;;;;;;;16.36;100.00;98446.03;6105934;19;20009;-73
2023/10/11 08:03:54;;;;;;;7.10;3.50;;;;;;;16.69;100.00;98457.59;6107047;19;20015;-73
2023/10/11 08:06:00;;;;;;;8.95;3.50;;;;;;;17.21;100.00;98454.47;6106650;19;20453;-73
2023/10/11 08:08:01;;;;;;;5.97;3.80;;;;;;;17.54;100.00;98447.13;6107643;19;20002;-73
2023/10/11 08:10:28;;;;;;;7.97;3.58;;;;;;;17.60;100.00;98453.84;6106461;19;20018;-74
2023/10/11 08:12:24;;;;;;;7.28;3.10;;;;;;;17.74;100.00;98456.41;6106954;19;20028;-74
2023/10/11 08:14:28;;;;;;;8.05;4.05;;;;;;;17.88;100.00;98458.97;6106068;19;20017;-74
2023/10/11 08:16:33;;;;;;;6.80;3.72;;;;;;;17.99;100.00;98457.97;6107988;19;20017;-74
2023/10/11 08:18:33;;;;;;;9.95;3.38;;;;;;;17.97;100.00;98458.41;6107111;19;20062;-74
2023/10/11 08:20:33;;;;;;;9.18;4.03;;;;;;;18.03;100.00;98455.91;6104721;19;20072;-74
2023/10/11 08:22:35;;;;;;;10.35;3.53;;;;;;;18.02;100.00;98455.09;6107157;19;20095;-74
2023/10/11 08:24:58;;;;;;;11.67;4.33;;;;;;;18.01;100.00;98450.72;6107484;19;20002;-73
2023/10/11 08:27:06;;;;;;;5.05;3.30;;;;;;;17.95;100.00;98447.63;6106840;19;20337;-73
2023/10/11 08:29:14;;;;;;;9.65;3.40;;;;;;;17.93;100.00;98447.28;6107196;19;20014;-73
2023/10/11 08:33:30;;;;;;;6.72;3.63;;;;;;;18.09;100.00;98443.00;6106823;19;20010;-73
2023/10/11 08:35:33;;;;;;;9.30;3.70;;;;;;;18.03;100.00;98441.91;6107866;19;20026;-74
2023/10/11 08:37:34;;;;;;;8.85;3.45;;;;;;;18.05;100.00;98445.06;6106262;19;20044;-73
2023/10/11 08:39:44;;;;;;;8.13;3.50;;;;;;;18.06;100.00;98436.25;6106625;19;20027;-73
2023/10/11 08:41:45;;;;;;;9.02;3.83;;;;;;;18.16;100.00;98445.66;6105585;19;20592;-73
2023/10/11 08:43:49;;;;;;;7.85;3.33;;;;;;;18.18;100.00;98460.78;6106052;19;20003;-73
2023/10/11 08:45:50;;;;;;;9.80;4.18;;;;;;;18.21;100.00;98465.56;6107623;19;20011;-73
2023/10/11 08:47:52;;;;;;;6.32;4.28;;;;;;;18.29;100.00;98477.41;6105448;19;20006;-73
2023/10/11 08:49:54;;;;;;;12.10;6.45;;;;;;;18.34;100.00;98488.09;6105753;19;20015;-74
2023/10/11 08:52:00;;;;;;;16.55;6.30;;;;;;;18.47;100.00;98480.66;6105714;19;20070;-74
2023/10/11 08:54:00;;;;;;;8.63;4.15;;;;;;;18.45;100.00;98476.66;6106570;19;20010;-74
2023/10/11 08:56:01;;;;;;;11.48;4.15;;;;;;;18.48;100.00;98475.81;6106609;19;20044;-74
2023/10/11 08:58:04;;;;;;;8.43;4.15;;;;;;;18.50;100.00;98476.19;6109059;19;20008;-73
2023/10/11 09:00:17;;;;;;;7.60;3.67;;;;;;;18.51;100.00;98472.16;6111115;19;20103;-74
2023/10/11 09:02:19;;;;;;;11.80;4.03;;;;;;;18.59;100.00;98472.78;6111134;19;20010;-74
2023/10/11 09:04:26;;;;;;;6.95;3.53;;;;;;;18.62;100.00;98478.34;6112654;19;20264;-74
2023/10/11 09:06:26;;;;;;;5.70;3.13;;;;;;;18.65;100.00;98465.47;6113243;19;20015;-73
2023/10/11 09:08:32;;;;;;;7.18;4.05;;;;;;;18.68;100.00;98468.22;6112267;19;20021;-74
2023/10/11 09:10:35;;;;;;;13.50;4.15;;;;;;;18.74;100.00;98457.28;6112098;19;20364;-74
2023/10/11 09:12:48;;;;;;;9.88;3.60;;;;;;;18.81;100.00;98445.94;6111856;19;20891;-74
2023/10/11 09:14:59;;;;;;;11.23;3.65;;;;;;;18.83;100.00;98431.47;6109914;19;20003;-74
2023/10/11 09:17:19;;;;;;;8.32;3.33;;;;;;;18.92;100.00;98438.06;6111055;19;20003;-73
2023/10/11 09:19:22;;;;;;;8.20;3.58;;;;;;;18.95;100.00;98436.41;6112183;19;20348;-73
2023/10/11 09:21:23;;;;;;;8.35;3.28;;;;;;;18.99;97.95;98432.31;6110901;19;20074;-73
2023/10/11 09:23:46;;;;;;;6.25;3.28;;;;;;;19.09;97.12;98434.06;6112597;19;20492;-73
2023/10/11 09:25:59;;;;;;;8.63;3.33;;;;;;;19.13;99.39;98431.19;6111915;19;20413;-74
2023/10/11 09:27:59;;;;;;;7.43;3.45;;;;;;;19.19;97.31;98429.41;6110809;19;20007;-74
2023/10/11 09:30:19;;;;;;;10.45;3.40;;;;;;;19.29;96.94;98422.00;6109995;19;20007;-74
2023/10/11 09:32:31;;;;;;;8.10;3.65;;;;;;;19.35;95.94;98418.22;6007529;19;2006635;-73
2023/10/11 09:34:32;;;;;;;12.13;4.50;;;;;;;19.33;97.93;98431.88;6112088;19;20015;-74
2023/10/11 09:36:33;;;;;;;9.50;3.55;;;;;;;19.38;96.34;98427.78;6112749;19;20015;-73
2023/10/11 09:38:39;;;;;;;8.68;3.50;;;;;;;19.42;96.37;98430.47;6111132;19;20010;-73
2023/10/11 09:40:40;;;;;;;5.53;2.90;;;;;;;19.44;96.70;98426.00;6111792;19;20003;-73
2023/10/11 09:42:43;;;;;;;5.80;3.28;;;;;;;19.49;94.82;98433.91;6110230;19;20486;-74
2023/10/11 09:44:45;;;;;;;9.18;3.50;;;;;;;19.50;95.03;98421.44;6110532;19;20013;-74
2023/10/11 09:46:48;;;;;;;8.43;3.30;;;;;;;19.47;94.09;98419.53;6112434;19;20891;-74
2023/10/11 09:48:48;;;;;;;;;;;;;;;19.61;91.22;98422.03;6102075;19;20002;-74
2023/10/11 09:50:49;;;;;;;7.97;3.30;;;;;;;19.70;91.79;98431.84;6109106;19;20341;-73
2023/10/11 09:52:52;;;;;;;4.78;2.97;;;;;;;19.71;92.42;98436.22;6110138;19;19995;-74
2023/10/11 09:54:53;;;;;;;13.80;3.55;;;;;;;19.80;92.03;98433.56;6110937;19;20018;-74
2023/10/11 09:57:25;;;;;;;7.22;3.45;;;;;;;19.87;92.11;98436.19;6110719;19;20007;-74
2023/10/11 10:00:08;;;;;;;5.88;3.25;;;;;;;19.89;92.70;98444.94;6109509;19;20006;-73
2023/10/11 10:02:19;;;;;;;7.13;3.40;;;;;;;19.91;89.91;98453.72;6106757;19;20014;-74
2023/10/11 10:04:52;;;;;;;9.25;3.00;;;;;;;19.91;91.31;98440.47;6111738;19;20332;-73
2023/10/11 10:07:14;;;;;;;7.55;3.65;;;;;;;19.85;92.60;98438.63;6108986;19;20287;-73
2023/10/11 10:11:21;;;;;;;6.38;3.60;;;;;;;19.84;91.89;98434.25;6109693;19;20070;-74